Time;durP1;ratioP1;P1;durP2;ratioP2;P2;SDS_P1;SDS_P2;PMS_P1;PMS_P2;Temp;Humidity;BMP_temperature;BMP_pressure;BME280_temperature;BME280_humidity;BME280_pressure;Samples;Min_cycle;Max_cycle;Signal;HPM_P1;HPM_P2
2023/07/07 00:01:09;;;;;;;5.70;3.40;;;;;;;25.46;58.40;100041.30;105514;1254;63858;-73
2023/07/07 00:03:35;;;;;;;4.90;3.70;;;;;;;25.27;58.82;100038.30;105581;1259;59639;-73
2023/07/07 00:06:02;;;;;;;3.90;3.40;;;;;;;25.14;59.31;100016.11;105652;1254;59628;-73
2023/07/07 00:08:29;;;;;;;4.00;3.50;;;;;;;25.05;59.61;99986.58;105648;1256;64475;-73
2023/07/07 00:10:58;;;;;;;4.60;3.40;;;;;;;25.01;59.94;99980.79;105671;1258;59526;-73
2023/07/07 00:13:25;;;;;;;4.10;3.30;;;;;;;24.97;60.12;99992.86;105743;1254;63900;-73
2023/07/07 00:16:02;;;;;;;6.70;3.60;;;;;;;24.93;60.17;99990.44;105593;1258;59546;-73
2023/07/07 00:18:29;;;;;;;5.10;3.40;;;;;;;24.87;60.22;99997.14;105572;1254;59708;-74
2023/07/07 00:20:56;;;;;;;4.40;3.60;;;;;;;24.81;60.26;99996.66;105498;1258;63176;-73
2023/07/07 00:23:24;;;;;;;4.20;3.40;;;;;;;24.74;60.40;99995.28;105600;1254;59647;-73
2023/07/07 00:26:03;;;;;;;3.90;3.40;;;;;;;24.66;60.57;99986.88;105529;1254;63823;-73
2023/07/07 00:28:31;;;;;;;4.70;3.40;;;;;;;24.61;60.56;99984.94;105504;1261;59897;-73
2023/07/07 00:30:58;;;;;;;3.80;3.30;;;;;;;24.57;60.69;99977.46;105576;1255;59731;-74
2023/07/07 00:33:25;;;;;;;7.30;3.90;;;;;;;24.52;60.92;99980.29;105606;1257;64500;-73
2023/07/07 00:35:53;;;;;;;3.80;3.30;;;;;;;24.49;61.06;99978.02;105453;1256;59652;-73
2023/07/07 00:38:20;;;;;;;6.30;3.60;;;;;;;24.47;61.17;99971.27;105458;1256;63835;-74
2023/07/07 00:40:47;;;;;;;5.40;3.50;;;;;;;24.44;61.36;99972.85;105425;1256;59541;-74
2023/07/07 00:43:16;;;;;;;6.70;3.80;;;;;;;24.41;61.51;99973.86;105539;1254;59691;-74
2023/07/07 00:45:44;;;;;;;5.00;4.30;;;;;;;24.36;61.68;99970.00;105472;1259;64262;-74
2023/07/07 00:48:13;;;;;;;7.10;4.00;;;;;;;24.26;62.00;99967.17;105576;1254;59671;-74
2023/07/07 00:50:45;;;;;;;5.10;4.10;;;;;;;24.25;62.19;99972.16;105375;1260;63847;-74
2023/07/07 00:53:13;;;;;;;5.80;3.90;;;;;;;24.24;62.41;99976.73;105562;1256;59664;-73
2023/07/07 00:55:42;;;;;;;6.10;4.30;;;;;;;24.23;62.63;99982.39;105401;1260;59514;-74
2023/07/07 00:58:11;;;;;;;4.30;3.90;;;;;;;24.24;62.68;99994.41;105447;1254;64282;-74
2023/07/07 01:00:40;;;;;;;5.90;4.00;;;;;;;24.25;62.59;100000.14;105345;1260;59541;-74
2023/07/07 01:03:10;;;;;;;4.40;3.70;;;;;;;24.24;62.63;100002.98;105363;1254;63953;-74
2023/07/07 01:05:38;;;;;;;4.60;3.80;;;;;;;24.25;62.66;100023.11;105633;1258;59616;-74
2023/07/07 01:08:06;;;;;;;4.40;3.70;;;;;;;24.25;62.52;100047.48;105713;1254;59800;-74
2023/07/07 01:10:34;;;;;;;4.10;3.70;;;;;;;24.26;62.43;100063.90;105663;1254;64489;-74
2023/07/07 01:13:01;;;;;;;4.40;3.50;;;;;;;24.27;62.34;100076.61;105702;1260;59625;-74
2023/07/07 01:15:33;;;;;;;4.20;3.60;;;;;;;24.27;62.33;100082.66;105723;1254;63870;-74
2023/07/07 01:18:15;;;;;;;4.40;3.80;;;;;;;24.29;62.30;100077.21;105713;1254;59736;-74
2023/07/07 01:21:01;;;;;;;7.30;4.10;;;;;;;24.31;62.22;100072.10;105772;1254;59647;-74
2023/07/07 01:23:53;;;;;;;5.80;3.70;;;;;;;24.31;62.11;100066.63;105691;1256;64291;-74
2023/07/07 01:26:41;;;;;;;3.90;3.10;;;;;;;24.29;62.11;100059.70;105742;1256;59759;-72
2023/07/07 01:29:46;;;;;;;4.10;3.30;;;;;;;24.27;62.12;100049.45;105504;1256;64023;-74
2023/07/07 01:32:20;;;;;;;4.30;3.50;;;;;;;24.23;62.27;100040.64;105199;1256;60466;-73
2023/07/07 01:34:46;;;;;;;5.10;3.90;;;;;;;24.21;62.28;100044.13;105529;1256;60403;-74
2023/07/07 01:37:13;;;;;;;5.60;3.40;;;;;;;24.21;62.21;100051.81;105501;1260;64876;-73
2023/07/07 01:39:40;;;;;;;3.70;3.30;;;;;;;24.21;62.26;100054.27;105437;1257;61754;-75
2023/07/07 01:42:13;;;;;;;4.40;2.90;;;;;;;24.21;62.28;100064.35;105325;1256;63849;-75
2023/07/07 01:45:02;;;;;;;3.90;3.20;;;;;;;24.21;62.18;100085.31;105266;1256;60621;-73
2023/07/07 01:47:34;;;;;;;5.60;3.40;;;;;;;24.20;62.23;100103.05;105542;1256;60535;-75
2023/07/07 01:50:11;;;;;;;4.60;3.40;;;;;;;24.20;62.15;100127.92;105711;1259;65051;-76
2023/07/07 01:52:45;;;;;;;6.50;3.50;;;;;;;24.22;62.12;100124.09;105627;1260;60331;-74
2023/07/07 01:55:19;;;;;;;5.40;3.70;;;;;;;24.24;62.19;100119.77;105588;1256;64711;-75
2023/07/07 01:57:47;;;;;;;4.60;3.80;;;;;;;24.27;62.23;100124.27;105598;1260;60413;-74
2023/07/07 02:00:14;;;;;;;3.60;3.30;;;;;;;24.28;62.17;100116.21;105400;1256;60503;-76
2023/07/07 02:02:44;;;;;;;5.80;3.70;;;;;;;24.29;62.12;100109.98;105614;1254;63864;-75
2023/07/07 02:05:15;;;;;;;4.80;4.10;;;;;;;24.28;62.14;100105.05;105684;1254;60567;-75
2023/07/07 02:07:43;;;;;;;4.80;3.90;;;;;;;24.28;62.22;100104.71;105686;1256;63839;-75
2023/07/07 02:10:11;;;;;;;4.20;3.50;;;;;;;24.29;62.23;100108.15;105575;1256;60415;-74
2023/07/07 02:12:38;;;;;;;5.40;3.80;;;;;;;24.31;62.12;100121.52;105706;1258;60471;-74
2023/07/07 02:15:05;;;;;;;5.30;4.00;;;;;;;24.37;61.99;100141.11;105439;1258;65282;-75
2023/07/07 02:17:32;;;;;;;4.40;3.90;;;;;;;24.40;61.97;100143.65;105648;1254;60452;-74
2023/07/07 02:19:58;;;;;;;4.70;3.80;;;;;;;24.41;62.00;100139.55;105547;1261;62598;-75
2023/07/07 02:22:25;;;;;;;4.50;4.10;;;;;;;24.42;62.01;100125.59;105649;1254;60501;-78
2023/07/07 02:24:52;;;;;;;4.50;4.00;;;;;;;24.43;62.19;100095.93;105662;1256;60448;-75
2023/07/07 02:27:19;;;;;;;8.40;4.30;;;;;;;24.46;62.23;100046.14;105668;1260;65291;-75
2023/07/07 02:29:46;;;;;;;8.60;4.60;;;;;;;24.47;62.23;100002.85;105647;1255;60540;-75
2023/07/07 02:32:12;;;;;;;8.70;4.20;;;;;;;24.40;62.51;99984.88;105597;1256;63982;-75
2023/07/07 02:34:40;;;;;;;6.70;4.20;;;;;;;24.33;62.89;99976.96;105685;1255;60436;-76
2023/07/07 02:37:12;;;;;;;4.80;3.80;;;;;;;24.27;63.15;99966.49;105788;1258;60379;-76
2023/07/07 02:39:40;;;;;;;5.00;4.10;;;;;;;24.23;63.32;99952.45;105657;1254;65336;-74
2023/07/07 02:42:08;;;;;;;5.50;4.30;;;;;;;24.19;63.43;99937.32;105534;1254;60458;-74
2023/07/07 02:44:36;;;;;;;4.60;3.90;;;;;;;24.17;63.64;99928.84;105704;1256;63928;-75
2023/07/07 02:47:03;;;;;;;5.70;4.10;;;;;;;24.16;63.79;99922.75;105457;1257;60615;-74
2023/07/07 02:49:29;;;;;;;5.80;4.40;;;;;;;24.14;63.83;99918.34;105495;1256;60480;-73
2023/07/07 02:51:56;;;;;;;5.50;4.20;;;;;;;24.14;63.83;99919.45;105460;1259;65213;-73
2023/07/07 02:54:23;;;;;;;4.70;4.00;;;;;;;24.14;63.85;99918.00;105542;1260;60461;-73
2023/07/07 02:56:49;;;;;;;7.80;4.00;;;;;;;24.13;63.95;99917.79;105473;1261;63707;-75
2023/07/07 02:59:17;;;;;;;7.20;4.10;;;;;;;24.12;64.02;99923.98;105668;1256;60552;-75
2023/07/07 03:01:44;;;;;;;6.00;4.20;;;;;;;24.12;64.04;99939.71;105649;1256;60453;-74
2023/07/07 03:04:12;;;;;;;5.70;4.30;;;;;;;24.12;64.04;99964.29;105556;1258;65171;-74
2023/07/07 03:06:39;;;;;;;4.60;4.20;;;;;;;24.12;64.27;99976.33;105698;1256;60403;-75
2023/07/07 03:09:07;;;;;;;4.80;4.20;;;;;;;24.14;64.30;99967.77;105686;1256;64098;-73
2023/07/07 03:11:34;;;;;;;4.80;4.30;;;;;;;24.17;64.38;99959.81;105489;1257;60458;-72
2023/07/07 03:14:02;;;;;;;4.90;4.30;;;;;;;24.19;64.43;99965.69;105601;1260;60429;-72
2023/07/07 03:16:32;;;;;;;5.40;4.20;;;;;;;24.21;64.40;99983.35;105613;1261;65058;-73
2023/07/07 03:19:08;;;;;;;5.30;4.30;;;;;;;24.21;64.42;99972.92;105679;1256;60465;-73
2023/07/07 03:21:44;;;;;;;6.50;4.20;;;;;;;24.22;64.44;99977.66;105527;1256;64105;-73
2023/07/07 03:24:27;;;;;;;6.50;4.20;;;;;;;24.24;64.57;99972.34;105437;1256;60416;-73
2023/07/07 03:26:55;;;;;;;4.40;4.00;;;;;;;24.23;64.57;99957.32;105534;1255;60474;-74
2023/07/07 03:29:25;;;;;;;4.80;4.00;;;;;;;24.24;64.37;99957.14;105647;1254;65304;-73
2023/07/07 03:31:53;;;;;;;4.50;3.80;;;;;;;24.26;64.16;99953.63;105617;1261;60513;-73
2023/07/07 03:34:21;;;;;;;4.00;3.60;;;;;;;24.30;63.90;99948.91;105710;1255;63767;-74
2023/07/07 03:36:48;;;;;;;4.60;4.00;;;;;;;24.33;63.69;99953.19;105605;1256;60514;-73
2023/07/07 03:39:16;;;;;;;4.40;4.00;;;;;;;24.36;63.45;99961.95;105603;1255;60570;-74
2023/07/07 03:41:43;;;;;;;4.90;4.40;;;;;;;24.39;63.37;99955.78;105557;1258;65172;-73
2023/07/07 03:44:10;;;;;;;5.00;4.40;;;;;;;24.42;63.30;99952.81;105522;1254;60349;-73
2023/07/07 03:46:37;;;;;;;4.80;4.30;;;;;;;24.42;63.26;99954.89;105703;1256;63856;-73
2023/07/07 03:49:04;;;;;;;4.50;4.10;;;;;;;24.42;63.26;99949.70;105651;1256;61002;-73
2023/07/07 03:51:36;;;;;;;5.30;4.40;;;;;;;24.43;63.27;99951.61;105583;1258;60436;-75
2023/07/07 03:54:05;;;;;;;6.60;4.50;;;;;;;24.46;63.23;99953.73;105308;1263;65211;-73
2023/07/07 03:56:34;;;;;;;5.80;4.50;;;;;;;24.48;63.18;99955.95;105599;1256;60454;-74
2023/07/07 03:59:00;;;;;;;5.50;4.60;;;;;;;24.49;63.21;99949.58;105553;1256;64041;-74
2023/07/07 04:01:28;;;;;;;5.20;4.50;;;;;;;24.51;63.26;99944.45;105536;1256;60531;-75
2023/07/07 04:03:55;;;;;;;5.50;4.90;;;;;;;24.60;63.20;99936.35;105612;1256;60518;-73
2023/07/07 04:06:22;;;;;;;6.00;4.60;;;;;;;24.71;63.07;99941.75;105609;1259;65055;-74
2023/07/07 04:08:48;;;;;;;6.80;4.50;;;;;;;24.71;63.17;99946.02;105528;1256;60512;-73
2023/07/07 04:11:19;;;;;;;5.80;4.90;;;;;;;24.73;63.31;99950.30;105553;1256;63956;-75
2023/07/07 04:13:47;;;;;;;5.60;4.80;;;;;;;24.77;63.37;99954.95;105619;1256;60536;-75
2023/07/07 04:16:23;;;;;;;7.00;4.70;;;;;;;24.82;63.42;99947.00;105659;1254;60440;-74
2023/07/07 04:18:50;;;;;;;5.10;4.30;;;;;;;24.86;63.30;99947.44;105516;1261;65099;-75
2023/07/07 04:21:20;;;;;;;6.50;4.80;;;;;;;24.90;63.14;99949.56;105692;1256;60490;-74
2023/07/07 04:23:48;;;;;;;6.60;4.70;;;;;;;24.94;62.92;99947.15;105743;1255;63867;-74
2023/07/07 04:26:17;;;;;;;5.80;4.60;;;;;;;24.99;62.94;99950.90;105749;1256;60347;-74
2023/07/07 04:28:44;;;;;;;6.40;5.20;;;;;;;25.04;62.91;99957.06;105712;1256;60541;-74
2023/07/07 04:31:14;;;;;;;6.50;5.00;;;;;;;25.09;62.70;99953.44;105489;1255;65333;-75
2023/07/07 04:33:40;;;;;;;5.20;4.50;;;;;;;25.12;62.47;99950.12;105512;1259;60388;-73
2023/07/07 04:36:09;;;;;;;5.80;5.20;;;;;;;25.13;62.15;99954.27;105554;1256;64040;-75
2023/07/07 04:38:36;;;;;;;5.70;5.10;;;;;;;25.14;62.02;99951.67;105657;1256;60353;-74
2023/07/07 04:41:11;;;;;;;6.40;4.90;;;;;;;25.12;61.87;99948.45;105706;1254;60547;-74
2023/07/07 04:43:40;;;;;;;5.30;4.80;;;;;;;25.11;61.76;99954.42;105692;1256;65252;-74
2023/07/07 04:46:08;;;;;;;5.30;4.70;;;;;;;25.13;61.70;99957.71;105675;1256;60457;-75
2023/07/07 04:48:35;;;;;;;6.60;5.00;;;;;;;25.17;61.59;99954.73;105805;1256;63943;-74
2023/07/07 04:51:06;;;;;;;6.70;4.90;;;;;;;25.20;61.52;99960.24;105683;1256;60426;-73
2023/07/07 04:53:35;;;;;;;6.90;5.00;;;;;;;25.26;61.42;99964.65;105754;1256;60544;-76
2023/07/07 04:56:04;;;;;;;5.10;4.70;;;;;;;25.31;61.32;99964.60;105766;1257;65196;-74
2023/07/07 04:58:31;;;;;;;6.00;4.70;;;;;;;25.35;61.15;99965.15;105742;1256;60397;-76
2023/07/07 05:01:19;;;;;;;6.10;5.10;;;;;;;25.41;61.06;99962.16;105771;1256;63866;-76
2023/07/07 05:03:52;;;;;;;5.20;4.70;;;;;;;25.47;60.92;99959.27;105702;1256;60458;-73
2023/07/07 05:06:20;;;;;;;5.20;4.60;;;;;;;25.53;60.92;99970.99;105610;1256;60485;-73
2023/07/07 05:08:47;;;;;;;5.10;4.60;;;;;;;25.58;60.88;99978.55;105543;1255;65117;-74
2023/07/07 05:11:15;;;;;;;4.50;4.10;;;;;;;25.64;60.76;99984.40;105539;1256;60422;-73
2023/07/07 05:13:42;;;;;;;5.50;4.30;;;;;;;25.72;60.67;99986.45;105572;1256;64009;-72
2023/07/07 05:16:15;;;;;;;5.20;4.20;;;;;;;25.76;60.59;99985.42;105543;1260;60803;-75
2023/07/07 05:18:42;;;;;;;4.50;4.10;;;;;;;25.82;60.75;99990.95;105630;1256;60548;-74
2023/07/07 05:21:09;;;;;;;5.00;4.50;;;;;;;25.90;60.65;99991.30;105596;1261;65028;-75
2023/07/07 05:23:37;;;;;;;6.00;4.40;;;;;;;25.97;60.43;99992.23;105599;1259;60408;-74
2023/07/07 05:26:04;;;;;;;6.30;4.90;;;;;;;26.04;60.23;99987.92;105644;1256;64024;-74
2023/07/07 05:28:31;;;;;;;5.90;4.80;;;;;;;26.10;60.17;99999.73;105650;1256;62074;-73
2023/07/07 05:30:57;;;;;;;5.20;4.40;;;;;;;26.17;60.06;100004.94;105645;1257;60455;-73
2023/07/07 05:33:27;;;;;;;5.50;4.20;;;;;;;26.26;59.97;100006.92;105598;1257;65012;-75
2023/07/07 05:35:55;;;;;;;5.30;4.50;;;;;;;26.33;59.69;100009.48;105783;1256;60544;-76
2023/07/07 05:38:23;;;;;;;4.70;4.10;;;;;;;26.37;59.45;100002.02;105780;1256;62518;-75
2023/07/07 05:40:50;;;;;;;4.60;4.20;;;;;;;26.38;59.25;99994.77;105708;1256;60979;-75
2023/07/07 05:43:18;;;;;;;5.20;4.20;;;;;;;26.40;59.37;99986.95;105681;1254;60375;-78
2023/07/07 05:45:45;;;;;;;4.60;4.10;;;;;;;26.46;59.27;99977.73;105783;1255;63797;-77
2023/07/07 05:48:12;;;;;;;5.70;4.10;;;;;;;26.54;58.96;99971.78;105778;1254;60544;-76
2023/07/07 05:50:39;;;;;;;4.60;4.10;;;;;;;26.61;58.83;99965.92;105768;1256;63850;-78
2023/07/07 05:53:06;;;;;;;4.80;4.40;;;;;;;26.71;58.88;99963.24;105798;1254;60335;-78
2023/07/07 05:55:34;;;;;;;5.30;4.30;;;;;;;26.80;58.76;99965.52;105727;1256;60541;-75
2023/07/07 05:58:01;;;;;;;6.00;4.00;;;;;;;26.84;58.34;99966.50;105570;1261;65154;-75
2023/07/07 06:00:29;;;;;;;5.10;4.20;;;;;;;26.88;57.87;99963.75;105691;1254;60458;-74
2023/07/07 06:02:56;;;;;;;4.60;4.10;;;;;;;26.92;57.67;99961.77;105661;1255;64038;-74
2023/07/07 06:05:23;;;;;;;4.70;4.10;;;;;;;26.94;58.13;99961.13;105683;1259;60453;-74
2023/07/07 06:07:50;;;;;;;4.40;4.00;;;;;;;27.02;58.16;99963.96;105656;1255;60518;-74
2023/07/07 06:10:17;;;;;;;4.50;3.80;;;;;;;27.10;57.95;99963.05;105573;1260;65125;-74
2023/07/07 06:12:44;;;;;;;4.70;4.30;;;;;;;27.14;57.56;99963.69;105765;1256;60925;-73
2023/07/07 06:15:11;;;;;;;6.10;4.60;;;;;;;27.15;57.37;99965.66;105843;1256;64241;-73
2023/07/07 06:17:38;;;;;;;5.40;4.10;;;;;;;27.17;57.38;99970.25;105756;1256;60435;-73
2023/07/07 06:20:05;;;;;;;5.50;4.50;;;;;;;27.20;57.27;99971.02;105634;1256;60419;-73
2023/07/07 06:22:32;;;;;;;6.20;4.20;;;;;;;27.23;57.38;99971.89;105650;1258;65208;-71
2023/07/07 06:25:00;;;;;;;4.80;4.30;;;;;;;27.23;57.34;99966.42;105737;1261;60426;-70
2023/07/07 06:27:30;;;;;;;4.30;3.90;;;;;;;27.27;57.34;99959.87;105774;1257;64075;-73
2023/07/07 06:29:57;;;;;;;4.70;4.20;;;;;;;27.34;57.24;99955.67;105716;1256;60341;-73
2023/07/07 06:32:23;;;;;;;4.50;3.80;;;;;;;27.39;57.08;99953.33;105655;1256;60538;-74
2023/07/07 06:34:50;;;;;;;5.10;4.40;;;;;;;27.46;57.22;99951.83;105781;1260;64999;-74
2023/07/07 06:37:17;;;;;;;5.90;4.50;;;;;;;27.52;57.22;99944.56;105541;1260;60528;-74
2023/07/07 06:39:44;;;;;;;5.20;4.30;;;;;;;27.62;57.01;99938.52;105698;1256;60447;-74
2023/07/07 06:42:10;;;;;;;6.20;4.00;;;;;;;27.72;56.89;99938.83;105641;1254;60370;-72
2023/07/07 06:44:44;;;;;;;5.80;4.30;;;;;;;27.75;56.79;99937.14;105741;1258;60423;-72
2023/07/07 06:47:13;;;;;;;6.10;4.00;;;;;;;27.79;56.84;99933.63;105778;1256;65233;-73
2023/07/07 06:49:41;;;;;;;8.60;4.10;;;;;;;27.82;56.48;99932.38;105508;1254;60438;-73
2023/07/07 06:52:08;;;;;;;6.50;4.20;;;;;;;27.81;56.43;99933.07;105660;1256;60598;-74
2023/07/07 06:54:35;;;;;;;3.90;3.60;;;;;;;27.84;56.57;99933.66;105675;1257;60470;-73
2023/07/07 06:57:01;;;;;;;9.40;4.10;;;;;;;27.95;56.97;99932.59;105892;1257;60540;-74
2023/07/07 06:59:29;;;;;;;4.50;3.60;;;;;;;28.13;57.24;99927.77;105715;1261;65225;-73
2023/07/07 07:01:55;;;;;;;8.80;4.10;;;;;;;28.29;56.87;99924.73;105715;1259;60508;-73
2023/07/07 07:04:22;;;;;;;6.70;4.40;;;;;;;28.41;56.70;99926.38;105537;1259;64267;-73
2023/07/07 07:06:49;;;;;;;4.60;4.00;;;;;;;28.53;56.28;99931.11;105614;1257;60422;-73
2023/07/07 07:09:15;;;;;;;4.70;3.70;;;;;;;28.64;56.01;99928.17;105630;1256;60483;-73
2023/07/07 07:11:43;;;;;;;6.60;4.10;;;;;;;28.74;55.65;99926.29;105707;1259;65993;-73
2023/07/07 07:14:15;;;;;;;6.10;3.70;;;;;;;28.84;55.48;99922.02;105738;1256;60421;-73
2023/07/07 07:16:41;;;;;;;4.40;3.90;;;;;;;28.93;54.52;99930.41;105701;1260;62633;-74
2023/07/07 07:19:08;;;;;;;4.00;3.50;;;;;;;28.93;53.74;99935.30;105579;1258;60442;-74
2023/07/07 07:21:36;;;;;;;4.20;3.50;;;;;;;28.89;53.52;99926.21;105565;1257;60543;-74
2023/07/07 07:24:03;;;;;;;5.10;3.80;;;;;;;28.89;53.74;99936.13;105693;1259;65060;-73
2023/07/07 07:26:30;;;;;;;5.00;3.80;;;;;;;28.96;53.87;99939.55;105573;1256;60417;-73
2023/07/07 07:28:57;;;;;;;6.00;4.00;;;;;;;29.09;53.34;99943.17;105601;1257;64064;-73
2023/07/07 07:31:24;;;;;;;5.60;3.80;;;;;;;29.17;53.03;99949.04;105549;1256;60443;-73
2023/07/07 07:33:52;;;;;;;4.30;3.60;;;;;;;29.23;52.46;99953.67;105656;1254;60448;-72
2023/07/07 07:36:20;;;;;;;4.40;3.40;;;;;;;29.27;52.21;99952.64;105751;1256;65099;-72
2023/07/07 07:38:47;;;;;;;5.20;3.30;;;;;;;29.33;52.18;99955.76;105743;1254;60465;-74
2023/07/07 07:41:14;;;;;;;4.70;3.50;;;;;;;29.42;52.04;99956.98;105598;1258;63896;-74
2023/07/07 07:43:41;;;;;;;7.30;3.90;;;;;;;29.52;52.03;99959.63;105606;1259;60522;-73
2023/07/07 07:46:07;;;;;;;4.20;3.50;;;;;;;29.57;52.07;99960.29;105506;1254;60496;-74
2023/07/07 07:48:34;;;;;;;5.50;3.10;;;;;;;29.62;52.08;99962.61;105650;1258;60454;-75
2023/07/07 07:51:00;;;;;;;4.10;3.20;;;;;;;29.72;51.77;99960.71;105574;1254;60980;-74
2023/07/07 07:53:28;;;;;;;4.20;3.10;;;;;;;29.79;51.42;99957.95;105760;1258;64138;-73
2023/07/07 07:55:54;;;;;;;4.30;3.10;;;;;;;29.87;51.45;99956.92;105634;1257;60388;-73
2023/07/07 07:58:21;;;;;;;4.00;3.10;;;;;;;29.97;51.49;99958.10;105596;1258;60474;-74
2023/07/07 08:00:48;;;;;;;5.50;2.90;;;;;;;30.09;51.30;99965.36;105493;1254;60451;-74
2023/07/07 08:03:14;;;;;;;4.50;2.80;;;;;;;30.30;50.29;99968.52;105621;1258;60422;-74
2023/07/07 08:05:41;;;;;;;3.20;2.90;;;;;;;30.34;49.67;99966.32;105700;1257;63072;-73
2023/07/07 08:08:08;;;;;;;3.90;3.10;;;;;;;30.38;49.77;99964.75;105635;1257;60603;-73
2023/07/07 08:10:35;;;;;;;3.80;2.90;;;;;;;30.42;49.56;99965.28;105668;1256;60480;-73
2023/07/07 08:13:02;;;;;;;6.70;2.90;;;;;;;30.50;49.43;99966.20;105658;1258;65012;-74
2023/07/07 08:15:28;;;;;;;9.30;2.90;;;;;;;30.61;49.30;99961.05;105655;1258;60483;-75
2023/07/07 08:17:55;;;;;;;7.00;2.70;;;;;;;30.71;48.93;99959.71;105514;1259;64023;-72
2023/07/07 08:20:23;;;;;;;7.10;3.30;;;;;;;30.83;48.85;99957.91;105573;1254;60374;-73
2023/07/07 08:22:50;;;;;;;6.10;2.70;;;;;;;30.94;48.54;99958.68;105738;1254;60460;-75
2023/07/07 08:25:17;;;;;;;3.80;2.90;;;;;;;31.05;48.36;99957.95;105670;1259;65010;-73
2023/07/07 08:27:43;;;;;;;3.60;2.80;;;;;;;31.15;48.20;99957.18;105586;1257;60453;-73
2023/07/07 08:30:30;;;;;;;3.30;2.70;;;;;;;31.26;48.15;99953.53;105589;1257;64053;-73
2023/07/07 08:32:58;;;;;;;5.40;2.70;;;;;;;31.38;47.85;99952.92;105720;1257;60327;-73
2023/07/07 08:35:24;;;;;;;4.60;3.10;;;;;;;31.45;47.70;99949.45;105487;1256;60572;-73
2023/07/07 08:37:51;;;;;;;3.70;2.80;;;;;;;31.52;47.41;99952.35;105552;1255;64903;-73
2023/07/07 08:40:20;;;;;;;5.30;3.20;;;;;;;31.55;46.99;99955.68;105488;1256;60624;-73
2023/07/07 08:42:47;;;;;;;6.60;3.40;;;;;;;31.61;47.10;99957.17;105451;1255;64074;-74
2023/07/07 08:45:19;;;;;;;6.00;3.30;;;;;;;31.68;46.90;99958.11;105341;1259;60510;-74
2023/07/07 08:47:59;;;;;;;4.10;3.10;;;;;;;31.76;47.20;99960.48;105426;1259;60757;-74
2023/07/07 08:50:36;;;;;;;4.00;3.20;;;;;;;31.91;47.05;99953.79;105406;1257;65025;-74
2023/07/07 08:53:30;;;;;;;4.70;2.90;;;;;;;32.02;46.18;99955.05;105435;1259;60617;-75
2023/07/07 08:56:18;;;;;;;4.60;2.80;;;;;;;32.07;45.89;99952.54;105448;1259;64029;-75
2023/07/07 08:59:09;;;;;;;3.90;3.10;;;;;;;32.16;45.88;99954.94;105538;1257;60545;-74
2023/07/07 09:01:50;;;;;;;3.70;3.00;;;;;;;32.28;45.47;99953.17;105381;1256;60408;-75
2023/07/07 09:04:38;;;;;;;;;;;;;;;32.40;45.26;99954.11;105513;1259;65210;-75
2023/07/07 09:07:08;;;;;;;4.70;2.90;;;;;;;32.57;45.17;99953.53;105562;1254;60552;-74
2023/07/07 09:09:42;;;;;;;3.80;2.90;;;;;;;32.70;44.71;99952.35;105547;1258;63983;-75
2023/07/07 09:12:28;;;;;;;3.60;3.10;;;;;;;32.78;44.20;99949.80;105507;1259;60456;-74
2023/07/07 09:14:55;;;;;;;4.10;3.00;;;;;;;32.91;44.12;99954.59;105592;1254;60480;-76
2023/07/07 09:17:24;;;;;;;4.70;2.90;;;;;;;33.06;43.51;99956.35;105601;1265;64915;-76
2023/07/07 09:19:50;;;;;;;3.70;2.90;;;;;;;33.22;43.52;99958.20;105856;1258;60494;-76
2023/07/07 09:22:24;;;;;;;3.40;2.90;;;;;;;33.40;43.16;99956.52;105686;1259;63991;-76
2023/07/07 09:25:03;;;;;;;3.20;2.90;;;;;;;33.55;42.49;99952.70;105398;1264;199233;-76
2023/07/07 09:27:34;;;;;;;4.80;3.00;;;;;;;33.59;42.31;99956.48;105782;1254;60541;-75
2023/07/07 09:30:08;;;;;;;3.60;2.90;;;;;;;33.59;42.13;99958.17;105706;1254;65012;-75
2023/07/07 09:32:34;;;;;;;3.30;2.90;;;;;;;33.54;41.96;99958.36;105724;1260;60436;-76
2023/07/07 09:35:01;;;;;;;4.60;3.10;;;;;;;33.45;41.76;99960.17;105581;1258;62843;-76
2023/07/07 09:37:46;;;;;;;5.70;3.10;;;;;;;33.38;42.04;99953.58;105378;1257;60642;-76
2023/07/07 09:40:18;;;;;;;4.10;3.00;;;;;;;33.34;42.19;99952.00;105471;1260;60349;-77
2023/07/07 09:43:01;;;;;;;4.90;3.20;;;;;;;33.30;42.12;99953.98;105651;1260;65032;-76
2023/07/07 09:45:33;;;;;;;3.40;3.10;;;;;;;33.18;41.72;99949.44;105540;1258;60486;-76
2023/07/07 09:48:14;;;;;;;4.10;3.10;;;;;;;33.10;41.59;99953.10;105747;1254;63890;-77
2023/07/07 09:50:44;;;;;;;4.60;3.00;;;;;;;33.08;42.07;99950.86;105518;1259;60427;-76
2023/07/07 09:53:15;;;;;;;4.30;3.40;;;;;;;33.10;42.16;99946.92;105630;1255;60449;-76
2023/07/07 09:55:50;;;;;;;4.70;3.60;;;;;;;33.15;42.28;99945.14;105619;1268;65086;-77
2023/07/07 09:58:33;;;;;;;22.80;4.20;;;;;;;33.29;42.74;99945.83;105554;1262;60550;-75
2023/07/07 10:01:01;;;;;;;7.30;3.40;;;;;;;33.51;42.56;99948.69;105438;1259;64051;-77
2023/07/07 10:03:37;;;;;;;5.90;3.20;;;;;;;33.67;42.10;99950.02;105499;1259;60442;-73
2023/07/07 10:06:09;;;;;;;6.50;3.10;;;;;;;33.73;41.93;99947.94;105494;1260;60464;-74
2023/07/07 10:08:36;;;;;;;5.20;3.10;;;;;;;33.82;41.80;99943.33;105460;1260;65197;-73
2023/07/07 10:11:22;;;;;;;5.60;3.10;;;;;;;33.97;41.57;99939.84;105629;1257;60670;-75
2023/07/07 10:14:14;;;;;;;6.30;3.10;;;;;;;34.14;41.48;99932.61;105551;1258;64072;-75
2023/07/07 10:16:50;;;;;;;5.10;3.30;;;;;;;34.29;41.82;99927.04;105617;1259;60539;-73
2023/07/07 10:19:17;;;;;;;6.30;3.20;;;;;;;34.46;41.47;99922.33;105636;1254;60522;-75
2023/07/07 10:21:44;;;;;;;3.80;3.10;;;;;;;34.60;41.00;99919.92;105613;1254;65201;-74
2023/07/07 10:24:12;;;;;;;3.90;3.00;;;;;;;34.77;40.99;99920.29;105549;1255;60514;-74
2023/07/07 10:26:42;;;;;;;4.20;3.20;;;;;;;34.94;40.47;99917.80;105594;1259;63854;-73
2023/07/07 10:29:11;;;;;;;5.10;3.20;;;;;;;35.04;40.25;99921.40;105636;1254;60418;-73
2023/07/07 10:31:43;;;;;;;4.20;2.90;;;;;;;35.10;40.43;99920.21;105572;1258;60795;-73
2023/07/07 10:34:25;;;;;;;3.60;3.00;;;;;;;35.09;40.64;99919.77;105566;1260;65227;-74
2023/07/07 10:36:53;;;;;;;4.20;3.10;;;;;;;34.98;40.13;99920.30;105680;1254;60435;-73
2023/07/07 10:39:22;;;;;;;4.40;3.10;;;;;;;34.82;40.00;99917.98;105723;1258;64047;-75
2023/07/07 10:41:49;;;;;;;5.00;3.30;;;;;;;34.65;40.13;99917.95;105731;1254;60413;-74
2023/07/07 10:44:16;;;;;;;3.50;3.20;;;;;;;34.50;40.39;99919.61;105725;1256;60543;-73
2023/07/07 10:46:43;;;;;;;8.20;3.30;;;;;;;34.35;40.67;99921.88;105524;1257;64548;-74
2023/07/07 10:49:17;;;;;;;3.60;2.90;;;;;;;34.17;40.65;99922.55;105553;1260;60667;-73
2023/07/07 10:51:50;;;;;;;19.00;4.00;;;;;;;33.93;40.93;99924.57;105654;1259;63940;-73
2023/07/07 10:54:23;;;;;;;25.10;4.20;;;;;;;33.75;41.78;99922.06;105583;1260;60981;-73
2023/07/07 10:56:58;;;;;;;5.10;3.20;;;;;;;33.58;42.62;99919.23;105453;1256;60456;-74
2023/07/07 10:59:44;;;;;;;5.90;3.30;;;;;;;33.41;42.89;99916.88;105536;1257;65088;-74
2023/07/07 11:02:16;;;;;;;4.30;3.20;;;;;;;33.19;43.06;99923.50;105519;1260;60508;-75
2023/07/07 11:05:20;;;;;;;8.40;3.80;;;;;;;32.97;43.56;99934.34;105662;1259;63037;-76
2023/07/07 11:08:01;;;;;;;7.60;3.20;;;;;;;32.80;44.59;99948.92;105414;1259;61843;-75
2023/07/07 11:10:47;;;;;;;3.40;2.70;;;;;;;32.66;45.22;99961.06;105467;1254;60445;-78
2023/07/07 11:13:29;;;;;;;3.50;3.10;;;;;;;32.51;45.75;99979.57;105406;1259;63914;-77
2023/07/07 11:16:19;;;;;;;4.60;3.50;;;;;;;32.37;46.53;99990.70;105532;1259;60611;-76
2023/07/07 11:18:54;;;;;;;4.50;3.40;;;;;;;32.28;47.09;99996.42;105707;1254;62624;-76
2023/07/07 11:22:01;;;;;;;4.30;3.60;;;;;;;32.26;46.95;99999.15;105642;1261;60561;-76
2023/07/07 11:24:35;;;;;;;3.90;3.10;;;;;;;32.30;46.59;99997.14;105619;1258;60461;-75
2023/07/07 11:27:40;;;;;;;4.30;3.60;;;;;;;32.37;46.26;99994.85;105517;1259;65069;-74
2023/07/07 11:30:13;;;;;;;4.40;3.80;;;;;;;32.44;46.29;99993.20;105478;1257;60532;-75
2023/07/07 11:32:46;;;;;;;;;;;;;;;32.50;46.26;99993.73;105571;1262;64051;-74
2023/07/07 11:35:40;;;;;;;6.40;3.80;;;;;;;32.54;46.54;99992.10;105657;1257;60544;-74
2023/07/07 11:38:18;;;;;;;4.20;3.50;;;;;;;32.61;46.46;99988.64;105452;1263;60470;-74
2023/07/07 11:41:06;;;;;;;4.50;3.40;;;;;;;32.67;46.42;99983.10;105645;1260;65351;-74